Terminal Aerodrome Forecast
Issued by NWS

Current Version | Previous Version | Text Only | Print | Product List | Glossary Off
Versions: 1 2 3 4 5 6 7 8 9 10 11 12 13 14 15 16 17 18 19 20 21 22 23 24 25 26 27

003
FTUS41 KRLX 170522
TAFCKB
TAF
KCKB 170522Z 1706/1806 29007KT P6SM OVC025
     FM170900 28003KT P6SM BKN020
     FM171600 22003KT P6SM SCT025
     FM171800 17003KT P6SM SCT140=

USA.gov is the U.S. government's official web portal to all federal, state and local government web resources and services.